createdAt,value
2019-05-26T00:08:22.806Z,100153.85
2019-05-26T00:18:26.381Z,100143.91
2019-05-26T00:28:30.196Z,100145.14
2019-05-26T00:38:33.761Z,100144.20
2019-05-26T00:48:37.329Z,100153.44
2019-05-26T00:58:40.871Z,100160.94
2019-05-26T01:08:44.421Z,100161.47
2019-05-26T01:18:47.990Z,100162.08
2019-05-26T01:28:51.565Z,100150.44
2019-05-26T01:38:55.159Z,100151.65
2019-05-26T01:48:58.732Z,100157.08
2019-05-26T01:59:02.287Z,100159.05
2019-05-26T02:09:07.691Z,100160.61
2019-05-26T02:19:11.262Z,100172.31
2019-05-26T02:29:14.825Z,100172.08
2019-05-26T02:39:18.399Z,100168.08
2019-05-26T02:49:21.987Z,100173.20
2019-05-26T02:59:25.576Z,100175.03
2019-05-26T03:09:29.116Z,100168.80
2019-05-26T03:19:35.895Z,100174.62
2019-05-26T03:29:39.470Z,100169.38
2019-05-26T03:39:45.972Z,100180.07
2019-05-26T03:49:48.309Z,100193.08
2019-05-26T03:59:52.333Z,100191.52
2019-05-26T04:10:04.899Z,100192.33
2019-05-26T04:20:01.128Z,100186.10
2019-05-26T04:30:08.164Z,100183.11
2019-05-26T04:40:25.663Z,100173.42
2019-05-26T04:50:17.016Z,100183.27
2019-05-26T05:00:20.610Z,100178.69
2019-05-26T05:10:24.165Z,100186.23
2019-05-26T05:20:27.760Z,100187.61
2019-05-26T05:30:31.365Z,100186.47
2019-05-26T05:40:34.930Z,100180.22
2019-05-26T05:50:39.498Z,100179.83
2019-05-26T06:00:43.244Z,100175.55
2019-05-26T06:10:46.837Z,100166.91
2019-05-26T06:20:50.439Z,100164.02
2019-05-26T06:30:54.002Z,100161.14
2019-05-26T06:40:57.558Z,100165.33
2019-05-26T06:51:01.142Z,100165.44
2019-05-26T07:01:04.963Z,100167.31
2019-05-26T07:11:08.502Z,100167.81
2019-05-26T07:21:12.075Z,100166.06
2019-05-26T07:31:15.626Z,100154.48
2019-05-26T07:41:19.703Z,100155.32
2019-05-26T07:51:23.300Z,100142.60
2019-05-26T08:01:35.508Z,100153.98
2019-05-26T08:11:32.082Z,100149.03
2019-05-26T08:21:35.675Z,100151.70
2019-05-26T08:31:39.285Z,100152.30
2019-05-26T08:41:43.157Z,100145.33
2019-05-26T08:51:46.701Z,100145.33
2019-05-26T09:01:50.271Z,100137.85
2019-05-26T09:11:53.842Z,100129.05
2019-05-26T09:21:57.411Z,100127.63
2019-05-26T09:32:00.946Z,100105.88
2019-05-26T09:42:05.281Z,100100.83
2019-05-26T09:52:08.832Z,100092.88
2019-05-26T10:02:12.397Z,100088.39
2019-05-26T10:12:15.978Z,100084.66
2019-05-26T10:22:19.521Z,100072.38
2019-05-26T10:32:23.098Z,100058.05
2019-05-26T10:42:26.639Z,100049.88
2019-05-26T10:52:30.475Z,100046.74
2019-05-26T11:02:34.964Z,100049.56
2019-05-26T11:12:38.516Z,100026.66
2019-05-26T11:22:42.080Z,100015.41
2019-05-26T11:32:45.672Z,99999.03
2019-05-26T11:42:49.251Z,99986.15
2019-05-26T11:52:52.809Z,99972.16
2019-05-26T12:02:59.789Z,99968.63
2019-05-26T12:13:01.970Z,99951.24
2019-05-26T12:23:05.519Z,99935.14
2019-05-26T12:33:09.058Z,99924.44
2019-05-26T12:43:14.181Z,99904.94
2019-05-26T12:53:20.760Z,99912.44
2019-05-26T13:03:24.322Z,99898.56
2019-05-26T13:13:27.857Z,99891.72
2019-05-26T13:23:31.389Z,99893.95
2019-05-26T13:33:34.948Z,99885.19
2019-05-26T13:43:38.507Z,99863.27
2019-05-26T13:53:42.065Z,99863.97
2019-05-26T14:03:45.595Z,99860.53
2019-05-26T14:13:49.185Z,99860.87
2019-05-26T14:23:52.809Z,99844.58
2019-05-26T14:33:56.559Z,99844.02
2019-05-26T14:44:00.104Z,99847.02
2019-05-26T14:54:03.890Z,99835.05
2019-05-26T15:04:07.451Z,99826.85
2019-05-26T15:14:11.199Z,99814.67
2019-05-26T15:24:14.727Z,99815.67
2019-05-26T15:34:18.323Z,99810.88
2019-05-26T15:44:22.020Z,99817.87
2019-05-26T15:54:25.600Z,99815.48
2019-05-26T16:04:29.185Z,99809.73
2019-05-26T16:14:32.710Z,99804.78
2019-05-26T16:24:36.839Z,99803.55
2019-05-26T16:34:40.512Z,99801.81
2019-05-26T16:44:44.118Z,99792.63
2019-05-26T16:54:47.653Z,99795.83
2019-05-26T17:04:51.503Z,99790.16
2019-05-26T17:14:55.224Z,99794.27
2019-05-26T17:25:00.043Z,99791.66
2019-05-26T17:35:04.110Z,99792.17
2019-05-26T17:45:08.200Z,99780.27
2019-05-26T17:55:11.882Z,99784.85
2019-05-26T18:05:15.422Z,99780.03
2019-05-26T18:15:18.962Z,99775.26
2019-05-26T18:25:22.493Z,99776.27
2019-05-26T18:35:26.033Z,99780.95
2019-05-26T18:45:29.572Z,99786.23
2019-05-26T18:55:33.108Z,99787.04
2019-05-26T19:05:38.452Z,99789.33
2019-05-26T19:15:42.038Z,99790.56
2019-05-26T19:25:45.821Z,99796.23
2019-05-26T19:35:49.417Z,99799.30
2019-05-26T19:45:53.342Z,99790.55
2019-05-26T19:55:56.983Z,99786.76
2019-05-26T20:06:00.579Z,99787.37
2019-05-26T20:16:04.866Z,99779.89
2019-05-26T20:26:08.404Z,99777.09
2019-05-26T20:36:12.001Z,99782.34
2019-05-26T20:46:15.579Z,99779.73
2019-05-26T20:56:19.135Z,99777.22
2019-05-26T21:06:22.726Z,99780.91
2019-05-26T21:16:26.498Z,99777.45
2019-05-26T21:26:30.249Z,99779.41
2019-05-26T21:36:33.902Z,99774.66
2019-05-26T21:46:37.470Z,99764.59
2019-05-26T21:56:41.013Z,99760.64
2019-05-26T22:06:44.543Z,99765.20
2019-05-26T22:16:48.127Z,99760.88
2019-05-26T22:26:51.702Z,99750.81
2019-05-26T22:36:55.287Z,99751.40
2019-05-26T22:46:58.817Z,99752.41
2019-05-26T22:57:02.409Z,99741.39
2019-05-26T23:07:06.418Z,99738.38
2019-05-26T23:17:09.991Z,99726.91
2019-05-26T23:27:13.549Z,99715.92
2019-05-26T23:37:17.139Z,99713.05
2019-05-26T23:47:20.699Z,99722.45
2019-05-26T23:57:26.559Z,99712.80
